createdAt,value
2017-08-21T00:09:34.215Z,100721.97
2017-08-21T00:19:56.034Z,100726.09
2017-08-21T00:30:18.579Z,100720.97
2017-08-21T00:45:58.062Z,100732.70
2017-08-21T00:56:19.886Z,100727.35
2017-08-21T01:06:42.635Z,100726.58
2017-08-21T01:17:04.384Z,100736.19
2017-08-21T01:27:27.307Z,100720.09
2017-08-21T01:37:49.041Z,100714.44
2017-08-21T01:48:11.868Z,100718.11
2017-08-21T01:58:34.679Z,100707.67
2017-08-21T02:08:57.491Z,100714.71
2017-08-21T02:19:20.364Z,100711.70
2017-08-21T02:29:42.884Z,100713.03
2017-08-21T02:45:22.304Z,100717.80
2017-08-21T02:55:44.112Z,100718.34
2017-08-21T03:06:06.024Z,100715.77
2017-08-21T03:16:29.628Z,100716.75
2017-08-21T03:26:52.335Z,100718.69
2017-08-21T03:37:14.078Z,100720.39
2017-08-21T03:47:37.611Z,100717.57
2017-08-21T03:58:01.323Z,100719.75
2017-08-21T04:08:24.640Z,100713.22
2017-08-21T04:13:30.445Z,100726.55
2017-08-21T04:23:53.240Z,100735.33
2017-08-21T04:34:16.815Z,100734.08
2017-08-21T04:44:38.479Z,100734.10
2017-08-21T04:55:02.091Z,100732.23
2017-08-21T05:00:07.901Z,100738.53
2017-08-21T05:10:32.154Z,100732.44
2017-08-21T05:20:55.698Z,100743.72
2017-08-21T05:31:19.346Z,100752.37
2017-08-21T05:46:58.878Z,100766.44
2017-08-21T05:57:21.620Z,100754.75
2017-08-21T06:07:45.236Z,100763.41
2017-08-21T06:18:07.839Z,100766.87
2017-08-21T06:23:13.641Z,100770.86
2017-08-21T06:33:37.117Z,100777.08
2017-08-21T06:43:59.702Z,100794.98
2017-08-21T06:54:20.445Z,100800.16
2017-08-21T07:04:40.391Z,100795.09
2017-08-21T07:09:46.184Z,100798.96
2017-08-21T07:20:06.783Z,100799.72
2017-08-21T07:30:28.479Z,100789.67
2017-08-21T07:46:04.039Z,100800.56
2017-08-21T08:01:40.599Z,100802.61
2017-08-21T08:12:02.465Z,100800.75
2017-08-21T08:17:08.271Z,100805.41
2017-08-21T08:27:29.636Z,100794.98
2017-08-21T08:32:35.428Z,100808.73
2017-08-21T08:48:13.371Z,100801.27
2017-08-21T08:58:35.203Z,100803.52
2017-08-21T09:08:57.051Z,100809.19
2017-08-21T09:19:18.364Z,100810.89
2017-08-21T09:29:40.991Z,100808.27
2017-08-21T09:45:18.530Z,100816.36
2017-08-21T09:55:41.216Z,100812.66
2017-08-21T10:06:03.536Z,100806.51
2017-08-21T10:16:23.408Z,100798.72
2017-08-21T10:26:46.178Z,100791.06
2017-08-21T10:37:05.968Z,100797.52
2017-08-21T10:47:28.019Z,100783.29
2017-08-21T10:57:50.701Z,100786.48
2017-08-21T11:08:17.275Z,100774.02
2017-08-21T11:18:39.857Z,100773.72
2017-08-21T11:29:02.387Z,100767.56
2017-08-21T11:44:41.144Z,100746.66
2017-08-21T11:49:46.947Z,100740.66
2017-08-21T12:00:12.630Z,100743.06
2017-08-21T12:10:35.135Z,100729.78
2017-08-21T12:21:10.625Z,100721.73
2017-08-21T12:31:46.437Z,100718.30
2017-08-21T12:42:09.855Z,100703.57
2017-08-21T12:52:33.868Z,100704.22
2017-08-21T13:02:59.784Z,100700.75
2017-08-21T13:08:05.666Z,100690.53
2017-08-21T13:18:31.068Z,100684.55
2017-08-21T13:28:53.014Z,100687.03
2017-08-21T13:44:45.263Z,100692.41
2017-08-21T13:55:11.840Z,100682.15
2017-08-21T14:05:46.508Z,100680.09
2017-08-21T14:10:51.565Z,100674.03
2017-08-21T14:26:35.290Z,100658.17
2017-08-21T14:36:58.086Z,100655.00
2017-08-21T14:47:20.762Z,100649.62
2017-08-21T14:58:22.201Z,100639.50
2017-08-21T15:08:47.843Z,100644.13
2017-08-21T15:19:10.226Z,100643.86
2017-08-21T15:29:35.070Z,100639.52
2017-08-21T15:50:12.881Z,100629.94
2017-08-21T16:00:35.411Z,100625.05
2017-08-21T16:10:57.199Z,100647.70
2017-08-21T16:21:22.737Z,100642.16
2017-08-21T16:31:44.623Z,100646.84
2017-08-21T16:47:23.354Z,100649.41
2017-08-21T16:57:45.359Z,100633.52
2017-08-21T17:08:07.185Z,100628.62
2017-08-21T17:18:28.979Z,100633.39
2017-08-21T17:28:52.289Z,100636.05
2017-08-21T17:44:31.790Z,100633.01
2017-08-21T17:54:53.634Z,100638.80
2017-08-21T18:05:16.137Z,100640.59
2017-08-21T18:15:37.954Z,100638.70
2017-08-21T18:26:04.183Z,100632.50
2017-08-21T18:36:25.657Z,100642.02
2017-08-21T18:46:48.302Z,100653.95
2017-08-21T18:57:10.870Z,100655.33
2017-08-21T19:07:32.568Z,100650.66
2017-08-21T19:17:52.656Z,100655.22
2017-08-21T19:28:14.538Z,100649.28
2017-08-21T19:38:36.139Z,100663.52
2017-08-21T19:48:59.576Z,100668.91
2017-08-21T19:59:22.189Z,100672.99
2017-08-21T20:09:44.655Z,100677.56
2017-08-21T20:20:08.284Z,100677.63
2017-08-21T20:30:30.884Z,100672.69
2017-08-21T20:46:10.342Z,100674.73
2017-08-21T20:56:32.905Z,100680.61
2017-08-21T21:06:55.457Z,100693.73
2017-08-21T21:12:01.223Z,100691.81
2017-08-21T21:22:22.989Z,100695.94
2017-08-21T21:32:45.559Z,100692.39
2017-08-21T21:48:24.923Z,100684.53
2017-08-21T21:58:46.654Z,100680.53
2017-08-21T22:09:07.715Z,100669.16
2017-08-21T22:14:14.217Z,100666.44
2017-08-21T22:24:36.009Z,100668.36
2017-08-21T22:35:00.502Z,100671.39
2017-08-21T22:45:22.421Z,100669.69
2017-08-21T22:55:44.274Z,100667.03
2017-08-21T23:06:06.135Z,100668.95
2017-08-21T23:16:27.089Z,100659.22
2017-08-21T23:26:48.822Z,100658.95
2017-08-21T23:37:10.664Z,100658.33
2017-08-21T23:47:33.221Z,100653.99
2017-08-21T23:57:55.866Z,100653.31
